createdAt,value
2023-05-05T00:03:14.782Z,4.07
2023-05-05T00:08:17.482Z,4.05
2023-05-05T00:13:20.448Z,4.07
2023-05-05T00:18:22.556Z,4.38
2023-05-05T00:23:24.579Z,5.97
2023-05-05T00:28:26.668Z,3.20
2023-05-05T00:33:28.930Z,3.70
2023-05-05T00:38:31.051Z,3.63
2023-05-05T00:43:33.285Z,3.70
2023-05-05T00:48:35.870Z,5.90
2023-05-05T00:53:39.800Z,7.78
2023-05-05T00:58:44.703Z,4.75
2023-05-05T01:05:20.767Z,6.47
2023-05-05T01:10:49.009Z,5.78
2023-05-05T01:15:53.641Z,5.20
2023-05-05T01:20:59.776Z,4.82
2023-05-05T01:26:21.766Z,6.00
2023-05-05T01:31:32.671Z,5.25
2023-05-05T01:36:42.431Z,4.55
2023-05-05T01:41:49.189Z,6.35
2023-05-05T01:46:52.376Z,6.57
2023-05-05T01:51:56.401Z,4.75
2023-05-05T01:56:59.752Z,6.75
2023-05-05T02:02:03.584Z,6.00
2023-05-05T02:11:30.147Z,6.25
2023-05-05T02:16:33.328Z,5.80
2023-05-05T02:21:35.312Z,4.50
2023-05-05T02:26:39.977Z,7.70
2023-05-05T02:31:51.320Z,6.32
2023-05-05T02:37:03.483Z,8.00
2023-05-05T02:42:11.189Z,11.40
2023-05-05T02:47:13.618Z,7.88
2023-05-05T02:52:16.149Z,7.90
2023-05-05T02:57:24.306Z,6.45
2023-05-05T03:02:54.371Z,7.30
2023-05-05T03:08:03.466Z,7.15
2023-05-05T03:13:20.581Z,8.50
2023-05-05T03:18:25.201Z,8.10
2023-05-05T03:23:36.654Z,7.53
2023-05-05T03:28:47.063Z,10.20
2023-05-05T03:33:55.149Z,10.25
2023-05-05T03:39:01.563Z,10.52
2023-05-05T03:44:11.270Z,11.88
2023-05-05T03:49:13.385Z,11.40
2023-05-05T03:54:17.593Z,8.77
2023-05-05T03:59:19.815Z,11.52
2023-05-05T04:08:25.401Z,10.75
2023-05-05T04:16:34.188Z,11.20
2023-05-05T04:21:37.301Z,11.20
2023-05-05T04:26:39.402Z,9.27
2023-05-05T04:31:42.021Z,11.13
2023-05-05T04:36:44.516Z,12.52
2023-05-05T04:41:47.153Z,10.07
2023-05-05T04:46:50.021Z,10.20
2023-05-05T04:51:52.395Z,10.32
2023-05-05T04:56:55.986Z,10.18
2023-05-05T05:02:04.714Z,14.52
2023-05-05T05:07:07.095Z,9.93
2023-05-05T05:12:09.852Z,9.75
2023-05-05T05:17:12.068Z,13.07
2023-05-05T05:22:14.542Z,8.63
2023-05-05T05:27:18.696Z,10.02
2023-05-05T05:32:22.919Z,11.00
2023-05-05T05:37:32.222Z,9.40
2023-05-05T05:42:35.348Z,10.07
2023-05-05T05:47:38.693Z,10.80
2023-05-05T05:52:40.974Z,10.90
2023-05-05T05:57:43.517Z,11.38
2023-05-05T06:02:47.074Z,9.43
2023-05-05T06:07:53.006Z,9.65
2023-05-05T06:12:56.776Z,13.65
2023-05-05T06:18:04.986Z,12.93
2023-05-05T06:23:07.542Z,9.73
2023-05-05T06:28:13.012Z,11.57
2023-05-05T06:33:15.186Z,7.68
2023-05-05T06:38:17.403Z,9.13
2023-05-05T06:43:19.577Z,9.00
2023-05-05T06:48:28.748Z,11.68
2023-05-05T06:53:30.898Z,12.40
2023-05-05T07:03:39.974Z,7.05
2023-05-05T07:08:42.154Z,5.63
2023-05-05T07:13:44.425Z,5.30
2023-05-05T07:18:46.554Z,5.55
2023-05-05T07:23:48.725Z,5.65
2023-05-05T07:28:56.139Z,7.57
2023-05-05T07:33:58.513Z,6.93
2023-05-05T07:39:00.754Z,8.07
2023-05-05T07:44:02.993Z,8.43
2023-05-05T07:49:05.205Z,13.57
2023-05-05T07:54:07.435Z,6.75
2023-05-05T07:59:15.658Z,7.53
2023-05-05T08:04:17.956Z,4.80
2023-05-05T08:09:20.577Z,5.13
2023-05-05T08:14:22.762Z,5.25
2023-05-05T08:19:29.189Z,5.63
2023-05-05T08:24:33.041Z,6.63
2023-05-05T08:29:35.228Z,3.40
2023-05-05T08:34:37.515Z,3.45
2023-05-05T08:39:39.516Z,5.97
2023-05-05T08:44:41.613Z,5.30
2023-05-05T08:49:59.007Z,4.28
2023-05-05T08:55:10.573Z,4.22
2023-05-05T09:00:13.479Z,3.30
2023-05-05T09:05:16.451Z,6.57
2023-05-05T09:10:19.637Z,5.55
2023-05-05T09:15:21.698Z,5.43
2023-05-05T09:20:24.758Z,4.53
2023-05-05T09:25:26.788Z,4.05
2023-05-05T09:30:28.869Z,3.30
2023-05-05T09:35:54.510Z,6.70
2023-05-05T09:40:56.658Z,2.95
2023-05-05T09:46:08.670Z,3.50
2023-05-05T09:51:21.278Z,3.47
2023-05-05T09:56:38.256Z,5.82
2023-05-05T10:01:43.339Z,2.75
2023-05-05T10:06:48.814Z,3.85
2023-05-05T10:11:55.563Z,3.63
2023-05-05T10:17:01.855Z,3.88
2023-05-05T10:22:08.406Z,3.88
2023-05-05T10:27:21.009Z,7.57
2023-05-05T10:37:41.484Z,3.42
2023-05-05T10:42:43.991Z,5.25
2023-05-05T10:47:46.780Z,2.88
2023-05-05T10:53:16.889Z,4.78
2023-05-05T10:58:47.077Z,5.15
2023-05-05T11:04:37.273Z,3.83
2023-05-05T11:09:55.514Z,5.67
2023-05-05T11:15:31.274Z,3.53
2023-05-05T11:20:36.362Z,4.40
2023-05-05T11:25:44.687Z,9.15
2023-05-05T11:30:59.461Z,4.10
2023-05-05T11:36:06.029Z,3.00
2023-05-05T11:41:33.649Z,5.00
2023-05-05T11:46:36.047Z,4.30
2023-05-05T11:51:38.370Z,3.00
2023-05-05T11:56:51.190Z,5.63
2023-05-05T12:01:57.136Z,2.80
2023-05-05T12:06:59.961Z,3.25
2023-05-05T12:12:03.091Z,5.43
2023-05-05T12:17:08.667Z,6.63
2023-05-05T12:22:10.923Z,5.50
2023-05-05T12:27:13.038Z,3.08
2023-05-05T12:32:19.910Z,3.40
2023-05-05T12:37:26.439Z,5.05
2023-05-05T12:42:28.836Z,5.50
2023-05-05T12:47:32.507Z,6.45
2023-05-05T12:52:45.646Z,3.90
2023-05-05T12:58:07.204Z,3.83
2023-05-05T13:03:21.863Z,4.95
2023-05-05T13:08:42.239Z,5.47
2023-05-05T13:13:44.705Z,5.93
2023-05-05T13:18:50.624Z,3.92
2023-05-05T13:24:01.540Z,5.10
2023-05-05T13:29:14.415Z,5.40
2023-05-05T13:34:16.824Z,4.22
2023-05-05T13:39:19.235Z,4.75
2023-05-05T13:44:21.986Z,4.63
2023-05-05T13:49:24.610Z,4.32
2023-05-05T13:54:26.814Z,4.75
2023-05-05T13:59:30.137Z,5.47
2023-05-05T14:04:32.539Z,2.55
2023-05-05T14:09:34.769Z,4.95
2023-05-05T14:14:37.512Z,4.38
2023-05-05T14:19:39.881Z,4.35
2023-05-05T14:24:41.854Z,4.50
2023-05-05T14:29:44.129Z,3.90
2023-05-05T14:34:47.737Z,4.15
2023-05-05T14:39:51.835Z,3.33
2023-05-05T14:44:53.960Z,3.95
2023-05-05T14:49:56.732Z,4.82
2023-05-05T14:54:58.928Z,2.50
2023-05-05T15:00:01.563Z,3.20
2023-05-05T15:05:11.312Z,3.00
2023-05-05T15:10:13.742Z,3.90
2023-05-05T15:15:16.172Z,4.70
2023-05-05T15:22:59.495Z,7.68
2023-05-05T15:28:01.776Z,4.30
2023-05-05T15:33:04.103Z,3.38
2023-05-05T15:38:09.029Z,3.92
2023-05-05T15:43:11.207Z,4.43
2023-05-05T15:48:13.174Z,5.20
2023-05-05T15:53:15.292Z,3.95
2023-05-05T15:58:18.238Z,3.20
2023-05-05T16:03:20.291Z,5.55
2023-05-05T16:08:22.632Z,4.65
2023-05-05T16:13:25.048Z,5.13
2023-05-05T16:18:27.475Z,3.53
2023-05-05T16:23:29.602Z,4.00
2023-05-05T16:28:34.298Z,2.38
2023-05-05T16:33:49.945Z,4.05
2023-05-05T16:38:52.109Z,4.93
2023-05-05T16:43:54.344Z,3.88
2023-05-05T16:48:56.622Z,4.80
2023-05-05T16:53:58.789Z,5.03
2023-05-05T16:59:01.030Z,4.05
2023-05-05T17:04:03.414Z,3.58
2023-05-05T17:09:06.341Z,4.72
2023-05-05T17:14:08.735Z,3.90
2023-05-05T17:19:11.315Z,2.55
2023-05-05T17:24:13.528Z,3.00
2023-05-05T17:29:19.872Z,2.55
2023-05-05T17:34:28.299Z,3.83
2023-05-05T17:39:31.045Z,3.45
2023-05-05T17:44:33.172Z,3.50
2023-05-05T17:49:35.295Z,6.10
2023-05-05T17:54:37.565Z,4.05
2023-05-05T17:59:39.969Z,6.75
2023-05-05T18:04:42.486Z,4.00
2023-05-05T18:09:44.717Z,2.22
2023-05-05T18:14:47.106Z,6.05
2023-05-05T18:19:49.630Z,3.95
2023-05-05T18:24:51.603Z,3.05
2023-05-05T18:29:53.602Z,3.60
2023-05-05T18:34:55.859Z,3.63
2023-05-05T18:39:57.957Z,3.40
2023-05-05T18:45:00.141Z,3.78
2023-05-05T18:50:02.555Z,3.95
2023-05-05T18:55:05.022Z,6.82
2023-05-05T19:00:07.821Z,5.38
2023-05-05T19:05:10.651Z,3.33
2023-05-05T19:10:13.424Z,3.10
2023-05-05T19:15:15.534Z,5.38
2023-05-05T19:20:17.734Z,3.03
2023-05-05T19:25:20.085Z,8.07
2023-05-05T19:30:22.714Z,5.60
2023-05-05T19:35:24.956Z,4.65
2023-05-05T19:40:27.144Z,3.45
2023-05-05T19:45:29.314Z,4.00
2023-05-05T19:50:31.754Z,3.78
2023-05-05T19:55:34.604Z,3.97
2023-05-05T20:00:36.876Z,3.83
2023-05-05T20:05:38.912Z,4.53
2023-05-05T20:10:41.142Z,5.38
2023-05-05T20:15:43.491Z,4.70
2023-05-05T20:22:59.184Z,3.50
2023-05-05T20:28:01.450Z,2.35
2023-05-05T20:33:03.659Z,2.25
2023-05-05T20:43:02.635Z,4.13
2023-05-05T20:48:09.825Z,1.92
2023-05-05T20:53:15.466Z,2.63
2023-05-05T20:58:17.745Z,4.28
2023-05-05T21:03:19.885Z,3.25
2023-05-05T21:08:22.146Z,3.58
2023-05-05T21:13:34.720Z,2.97
2023-05-05T21:23:08.534Z,2.58
2023-05-05T21:28:11.124Z,2.95
2023-05-05T21:33:13.495Z,3.67
2023-05-05T21:38:15.767Z,5.60
2023-05-05T21:43:17.920Z,5.28
2023-05-05T21:48:21.658Z,3.70
2023-05-05T21:53:24.177Z,2.38
2023-05-05T21:58:26.508Z,4.28
2023-05-05T22:03:28.752Z,3.65
2023-05-05T22:08:31.140Z,2.28
2023-05-05T22:13:33.300Z,2.72
2023-05-05T22:18:35.904Z,2.15
2023-05-05T22:23:41.484Z,5.25
2023-05-05T22:28:43.886Z,2.75
2023-05-05T22:33:50.706Z,2.78
2023-05-05T22:38:52.966Z,4.90
2023-05-05T22:43:56.357Z,4.53
2023-05-05T22:48:58.279Z,3.92
2023-05-05T22:54:00.505Z,6.68
2023-05-05T22:59:20.936Z,5.47
2023-05-05T23:04:23.061Z,4.65
2023-05-05T23:09:25.181Z,5.70
2023-05-05T23:14:27.490Z,4.25
2023-05-05T23:19:32.508Z,4.57
2023-05-05T23:24:39.747Z,7.10
2023-05-05T23:29:41.989Z,5.32
2023-05-05T23:34:44.065Z,6.50
2023-05-05T23:39:46.305Z,6.50
2023-05-05T23:44:48.604Z,7.45
2023-05-05T23:49:50.719Z,8.20
2023-05-05T23:54:52.763Z,7.25
2023-05-05T23:59:54.975Z,8.85
